Sprague, Washington
Current Conditions -  °F | °C
As of 4:58 AM on Thursday 27 Nov 2014 (Local Time) from KSKA Reporting Station
Overcast Overcast  
Wind Chill: 43°   Ceiling: 10000
Heat Index: 49°   Visibility: 10mi
Dew Point: 39°   Wind: 16mph
Humidity: 69%   Direction: 190°S
Pressure: 29.86"   Gusts: 26mph
Location:  47.3°N, 117.98°W
Report Text: KSKA 271258Z AUTO 19014G23KT 10SM OVC100 09/04 A2986 RMK AO2 PK WND 19026/32 SLP124 T00930038
Loading
Personal Weather Stations






























Interactive Weather Map New forecast layout! Learn more

10-Day Weather Forecast

Advertisements
Track Severe Weather on mobile